createdAt,value
2018-07-01T00:00:53.672Z,0.00
2018-07-01T00:01:53.600Z,0.00
2018-07-01T00:02:53.562Z,0.00
2018-07-01T00:03:53.505Z,0.00
2018-07-01T00:04:53.497Z,0.00
2018-07-01T00:05:53.513Z,0.00
2018-07-01T00:06:53.407Z,0.00
2018-07-01T00:07:53.413Z,0.00
2018-07-01T00:08:53.351Z,0.00
2018-07-01T00:09:53.304Z,0.00
2018-07-01T00:10:53.268Z,0.00
2018-07-01T00:11:53.233Z,0.00
2018-07-01T00:13:03.020Z,0.00
2018-07-01T00:13:53.137Z,0.00
2018-07-01T00:14:53.102Z,0.00
2018-07-01T00:15:53.243Z,0.00
2018-07-01T00:16:53.059Z,0.00
2018-07-01T00:17:53.378Z,0.00
2018-07-01T00:18:52.968Z,0.00
2018-07-01T00:19:52.903Z,0.00
2018-07-01T00:20:52.897Z,0.00
2018-07-01T00:21:52.856Z,0.00
2018-07-01T00:22:52.819Z,0.00
2018-07-01T00:23:52.783Z,0.00
2018-07-01T00:24:52.761Z,0.00
2018-07-01T00:25:52.739Z,0.00
2018-07-01T00:26:52.665Z,0.00
2018-07-01T00:27:52.646Z,0.00
2018-07-01T00:28:52.601Z,0.00
2018-07-01T00:29:52.561Z,0.00
2018-07-01T00:30:52.514Z,0.00
2018-07-01T00:31:52.557Z,0.00
2018-07-01T00:32:52.424Z,0.00
2018-07-01T00:33:52.381Z,0.00
2018-07-01T00:34:52.359Z,0.00
2018-07-01T00:35:52.367Z,0.00
2018-07-01T00:36:52.311Z,0.00
2018-07-01T00:37:52.312Z,0.00
2018-07-01T00:38:52.233Z,0.00
2018-07-01T00:39:52.164Z,0.00
2018-07-01T00:40:52.149Z,0.00
2018-07-01T00:41:52.110Z,0.00
2018-07-01T00:42:52.086Z,0.00
2018-07-01T00:43:52.022Z,0.00
2018-07-01T00:44:52.011Z,0.00
2018-07-01T00:45:51.956Z,0.00
2018-07-01T00:46:51.906Z,0.00
2018-07-01T00:47:51.907Z,0.00
2018-07-01T00:48:51.863Z,0.00
2018-07-01T00:49:51.853Z,0.00
2018-07-01T00:50:51.780Z,0.00
2018-07-01T00:51:51.766Z,0.00
2018-07-01T00:52:51.709Z,0.00
2018-07-01T00:53:51.658Z,0.00
2018-07-01T00:54:51.614Z,0.00
2018-07-01T00:55:51.596Z,0.00
2018-07-01T00:56:51.541Z,0.00
2018-07-01T00:57:51.513Z,0.00
2018-07-01T00:58:51.473Z,0.00
2018-07-01T00:59:51.441Z,0.00
2018-07-01T01:01:00.871Z,0.00
2018-07-01T01:01:51.679Z,0.00
2018-07-01T01:02:51.308Z,0.00
2018-07-01T01:03:51.306Z,0.00
2018-07-01T01:04:51.248Z,0.00
2018-07-01T01:05:51.195Z,0.00
2018-07-01T01:06:51.171Z,0.00
2018-07-01T01:07:51.201Z,0.00
2018-07-01T01:08:51.122Z,0.00
2018-07-01T01:09:51.737Z,0.00
2018-07-01T01:10:51.019Z,0.00
2018-07-01T01:11:50.996Z,0.00
2018-07-01T01:12:50.973Z,0.00
2018-07-01T01:13:50.896Z,0.00
2018-07-01T01:14:50.905Z,0.00
2018-07-01T01:15:50.814Z,0.00
2018-07-01T01:16:50.802Z,0.00
2018-07-01T01:17:50.749Z,0.00
2018-07-01T01:18:50.716Z,0.00
2018-07-01T01:19:50.741Z,0.00
2018-07-01T01:20:50.672Z,0.00
2018-07-01T01:21:50.625Z,0.00
2018-07-01T01:22:50.577Z,0.00
2018-07-01T01:23:50.538Z,0.00
2018-07-01T01:25:01.456Z,0.00
2018-07-01T01:25:50.735Z,0.00
2018-07-01T01:26:50.501Z,0.00
2018-07-01T01:27:50.713Z,0.00
2018-07-01T01:28:50.371Z,0.00
2018-07-01T01:29:50.364Z,0.00
2018-07-01T01:30:50.287Z,0.00
2018-07-01T01:31:50.247Z,0.00
2018-07-01T01:32:50.204Z,0.00
2018-07-01T01:33:50.181Z,0.00
2018-07-01T01:34:50.117Z,0.00
2018-07-01T01:35:50.113Z,0.00
2018-07-01T01:36:50.061Z,0.00
2018-07-01T01:37:50.055Z,0.00
2018-07-01T01:38:49.962Z,0.00
2018-07-01T01:39:49.948Z,0.00
2018-07-01T01:40:49.912Z,0.00
2018-07-01T01:41:49.860Z,0.00
2018-07-01T01:42:49.836Z,0.00
2018-07-01T01:43:49.785Z,0.00
2018-07-01T01:44:49.731Z,0.00
2018-07-01T01:45:49.733Z,0.00
2018-07-01T01:46:49.673Z,0.00
2018-07-01T01:48:01.312Z,0.00
2018-07-01T01:48:49.617Z,0.00
2018-07-01T01:49:49.562Z,0.00
2018-07-01T01:50:49.500Z,0.00
2018-07-01T01:51:49.999Z,0.00
2018-07-01T01:52:49.464Z,0.00
2018-07-01T01:53:49.401Z,0.00
2018-07-01T01:54:49.358Z,0.00
2018-07-01T01:55:49.324Z,0.00
2018-07-01T01:56:49.319Z,0.00
2018-07-01T01:57:49.247Z,0.00
2018-07-01T01:58:49.224Z,0.00
2018-07-01T01:59:49.176Z,0.00
2018-07-01T02:00:49.147Z,0.00
2018-07-01T02:01:49.168Z,0.00
2018-07-01T02:02:49.075Z,0.00
2018-07-01T02:03:49.036Z,0.00
2018-07-01T02:04:48.974Z,0.00
2018-07-01T02:05:48.940Z,0.00
2018-07-01T02:06:48.904Z,0.00
2018-07-01T02:07:48.884Z,0.00
2018-07-01T02:08:48.853Z,0.00
2018-07-01T02:09:48.806Z,0.00
2018-07-01T02:10:48.779Z,0.00
2018-07-01T02:11:48.718Z,0.00
2018-07-01T02:12:48.732Z,0.00
2018-07-01T02:13:48.666Z,0.00
2018-07-01T02:14:48.592Z,0.00
2018-07-01T02:15:48.612Z,0.00
2018-07-01T02:16:48.534Z,0.00
2018-07-01T02:17:48.536Z,0.00
2018-07-01T02:18:48.457Z,0.00
2018-07-01T02:19:48.422Z,0.00
2018-07-01T02:20:48.422Z,0.00
2018-07-01T02:21:48.339Z,0.00
2018-07-01T02:22:48.309Z,0.00
2018-07-01T02:23:48.291Z,0.00
2018-07-01T02:24:48.261Z,0.00
2018-07-01T02:25:48.184Z,0.00
2018-07-01T02:26:48.163Z,0.00
2018-07-01T02:27:48.132Z,0.00
2018-07-01T02:28:48.095Z,4.00
2018-07-01T02:29:48.071Z,4.00
2018-07-01T02:30:48.000Z,4.00
2018-07-01T02:31:47.973Z,0.00
2018-07-01T02:32:47.939Z,0.00
2018-07-01T02:33:47.902Z,4.00
2018-07-01T02:34:47.897Z,4.00
2018-07-01T02:35:47.853Z,0.00
2018-07-01T02:36:47.774Z,4.00
2018-07-01T02:37:47.723Z,4.00
2018-07-01T02:38:47.729Z,4.00
2018-07-01T02:39:47.692Z,8.00
2018-07-01T02:40:47.615Z,4.00
2018-07-01T02:41:47.631Z,4.00
2018-07-01T02:42:47.582Z,4.00
2018-07-01T02:43:47.554Z,12.00
2018-07-01T02:44:47.491Z,12.00
2018-07-01T02:45:47.422Z,8.00
2018-07-01T02:46:47.397Z,12.00
2018-07-01T02:47:47.375Z,16.00
2018-07-01T02:48:47.351Z,16.00
2018-07-01T02:49:47.286Z,20.00
2018-07-01T02:50:47.233Z,20.00
2018-07-01T02:51:47.215Z,24.00
2018-07-01T02:52:47.176Z,24.00
2018-07-01T02:53:47.191Z,28.00
2018-07-01T02:54:47.116Z,32.00
2018-07-01T02:55:47.070Z,36.00
2018-07-01T02:56:47.011Z,40.00
2018-07-01T02:57:46.973Z,44.00
2018-07-01T02:58:46.951Z,52.00
2018-07-01T02:59:46.925Z,56.00
2018-07-01T03:00:46.888Z,64.00
2018-07-01T03:01:46.836Z,72.00
2018-07-01T03:02:46.802Z,76.00
2018-07-01T03:03:46.771Z,84.00
2018-07-01T03:04:46.750Z,96.00
2018-07-01T03:05:46.697Z,104.00
2018-07-01T03:06:46.631Z,116.00
2018-07-01T03:07:46.611Z,124.00
2018-07-01T03:08:46.583Z,136.00
2018-07-01T03:09:46.518Z,148.00
2018-07-01T03:10:46.528Z,164.00
2018-07-01T03:11:46.458Z,180.00
2018-07-01T03:12:46.417Z,196.00
2018-07-01T03:13:46.387Z,212.00
2018-07-01T03:14:46.322Z,228.00
2018-07-01T03:15:46.325Z,244.00
2018-07-01T03:16:46.249Z,264.00
2018-07-01T03:17:46.235Z,284.00
2018-07-01T03:18:46.184Z,308.00
2018-07-01T03:19:46.125Z,332.00
2018-07-01T03:20:46.150Z,356.00
2018-07-01T03:21:46.058Z,380.00
2018-07-01T03:22:46.041Z,404.00
2018-07-01T03:23:46.050Z,428.00
2018-07-01T03:24:45.981Z,460.00
2018-07-01T03:25:45.910Z,488.00
2018-07-01T03:26:45.898Z,520.00
2018-07-01T03:27:45.821Z,548.00
2018-07-01T03:28:45.826Z,584.00
2018-07-01T03:29:45.751Z,616.00
2018-07-01T03:30:45.718Z,648.00
2018-07-01T03:31:45.740Z,684.00
2018-07-01T03:32:45.635Z,716.00
2018-07-01T03:33:45.586Z,752.00
2018-07-01T03:34:45.566Z,792.00
2018-07-01T03:35:45.524Z,828.00
2018-07-01T03:36:45.508Z,860.00
2018-07-01T03:37:45.454Z,900.00
2018-07-01T03:38:45.421Z,936.00
2018-07-01T03:39:45.387Z,976.00
2018-07-01T03:40:45.331Z,1012.00
2018-07-01T03:41:45.317Z,1052.00
2018-07-01T03:42:45.302Z,1092.00
2018-07-01T03:43:45.207Z,1132.00
2018-07-01T03:44:45.165Z,1168.00
2018-07-01T03:45:45.143Z,1212.00
2018-07-01T03:46:45.089Z,1248.00
2018-07-01T03:47:45.132Z,1292.00
2018-07-01T03:48:45.018Z,1332.00
2018-07-01T03:49:44.973Z,1372.00
2018-07-01T03:50:44.961Z,1416.00
2018-07-01T03:51:44.900Z,1456.00
2018-07-01T03:52:44.941Z,1492.00
2018-07-01T03:53:57.353Z,1536.00
2018-07-01T03:54:44.778Z,1576.00
2018-07-01T03:55:44.782Z,1616.00
2018-07-01T03:56:44.723Z,1648.00
2018-07-01T03:57:44.712Z,1692.00
2018-07-01T03:58:44.622Z,1728.00
2018-07-01T03:59:44.596Z,1768.00
2018-07-01T04:00:44.588Z,1804.00
2018-07-01T04:01:44.527Z,1840.00
2018-07-01T04:02:44.471Z,1876.00
2018-07-01T04:03:44.458Z,1916.00
2018-07-01T04:04:44.433Z,1952.00
2018-07-01T04:05:44.375Z,1984.00
2018-07-01T04:06:44.311Z,2024.00
2018-07-01T04:07:44.297Z,2060.00
2018-07-01T04:08:44.278Z,2092.00
2018-07-01T04:09:44.247Z,2128.00
2018-07-01T04:10:44.202Z,2160.00
2018-07-01T04:11:44.150Z,2196.00
2018-07-01T04:12:44.102Z,2232.00
2018-07-01T04:13:44.066Z,2268.00
2018-07-01T04:14:44.027Z,2304.00
2018-07-01T04:15:44.017Z,2336.00
2018-07-01T04:16:43.920Z,2372.00
2018-07-01T04:17:43.906Z,2404.00
2018-07-01T04:18:43.875Z,2432.00
2018-07-01T04:19:43.841Z,2468.00
2018-07-01T04:20:43.800Z,2500.00
2018-07-01T04:21:43.766Z,2520.00
2018-07-01T04:22:43.702Z,2564.00
2018-07-01T04:23:43.722Z,2612.00
2018-07-01T04:24:43.656Z,2628.00
2018-07-01T04:25:43.573Z,2652.00
2018-07-01T04:26:43.619Z,2680.00
2018-07-01T04:27:43.507Z,2708.00
2018-07-01T04:28:43.468Z,2744.00
2018-07-01T04:29:43.466Z,2772.00
2018-07-01T04:30:43.400Z,2804.00
2018-07-01T04:31:43.350Z,2856.00
2018-07-01T04:32:43.321Z,3268.00
2018-07-01T04:33:43.327Z,4816.00
2018-07-01T04:34:43.281Z,6460.00
2018-07-01T04:35:43.191Z,7652.00
2018-07-01T04:36:43.160Z,8168.00
2018-07-01T04:37:43.125Z,8300.00
2018-07-01T04:38:43.085Z,8560.00
2018-07-01T04:39:43.059Z,8688.00
2018-07-01T04:40:43.038Z,8748.00
2018-07-01T04:41:42.980Z,8804.00
2018-07-01T04:42:42.947Z,8932.00
2018-07-01T04:43:42.896Z,9028.00
2018-07-01T04:44:42.860Z,9064.00
2018-07-01T04:45:42.856Z,9156.00
2018-07-01T04:46:42.803Z,9340.00
2018-07-01T04:47:42.784Z,9536.00
2018-07-01T04:48:42.743Z,9524.00
2018-07-01T04:49:42.682Z,9768.00
2018-07-01T04:50:42.686Z,9932.00
2018-07-01T04:51:42.595Z,9932.00
2018-07-01T04:52:42.575Z,10020.00
2018-07-01T04:53:42.533Z,10236.00
2018-07-01T04:54:42.533Z,10324.00
2018-07-01T04:55:42.456Z,10436.00
2018-07-01T04:56:42.437Z,10628.00
2018-07-01T04:57:42.379Z,10804.00
2018-07-01T04:58:42.373Z,10940.00
2018-07-01T04:59:42.336Z,11160.00
2018-07-01T05:00:42.321Z,11376.00
2018-07-01T05:01:42.289Z,11568.00
2018-07-01T05:02:42.216Z,11784.00
2018-07-01T05:03:42.196Z,11860.00
2018-07-01T05:04:42.178Z,12032.00
2018-07-01T05:05:42.136Z,12208.00
2018-07-01T05:06:42.104Z,12396.00
2018-07-01T05:07:42.050Z,12644.00
2018-07-01T05:08:42.027Z,12988.00
2018-07-01T05:09:42.002Z,16160.00
2018-07-01T05:10:41.938Z,20928.00
2018-07-01T05:11:41.953Z,25024.00
2018-07-01T05:12:41.885Z,27776.00
2018-07-01T05:13:41.870Z,28096.00
2018-07-01T05:14:41.821Z,28000.00
2018-07-01T05:15:41.795Z,28608.00
2018-07-01T05:16:41.764Z,28096.00
2018-07-01T05:17:41.736Z,27168.00
2018-07-01T05:18:41.726Z,27168.00
2018-07-01T05:19:41.639Z,26816.00
2018-07-01T05:20:52.282Z,25504.00
2018-07-01T05:21:41.589Z,24576.00
2018-07-01T05:22:41.778Z,24480.00
2018-07-01T05:23:42.518Z,24768.00
2018-07-01T05:24:41.624Z,26560.00
2018-07-01T05:25:41.451Z,27968.00
2018-07-01T05:26:41.426Z,27648.00
2018-07-01T05:27:41.513Z,26912.00
2018-07-01T05:28:41.341Z,27520.00
2018-07-01T05:29:41.326Z,28128.00
2018-07-01T05:30:41.288Z,28768.00
2018-07-01T05:31:41.277Z,28256.00
2018-07-01T05:32:41.216Z,27936.00
2018-07-01T05:33:41.205Z,28000.00
2018-07-01T05:34:41.179Z,28064.00
2018-07-01T05:35:41.161Z,28288.00
2018-07-01T05:36:41.090Z,27936.00
2018-07-01T05:37:41.065Z,28224.00
2018-07-01T05:38:41.047Z,28672.00
2018-07-01T05:39:40.990Z,29088.00
2018-07-01T05:40:40.980Z,29376.00
2018-07-01T05:41:40.925Z,28992.00
2018-07-01T05:42:40.915Z,28576.00
2018-07-01T05:43:40.888Z,28896.00
2018-07-01T05:44:40.839Z,29184.00
2018-07-01T05:45:40.804Z,28736.00
2018-07-01T05:46:40.797Z,28320.00
2018-07-01T05:47:40.717Z,28928.00
2018-07-01T05:48:40.752Z,29792.00
2018-07-01T05:49:40.677Z,29504.00
2018-07-01T05:50:40.630Z,29984.00
2018-07-01T05:51:40.612Z,29568.00
2018-07-01T05:52:40.576Z,20256.00
2018-07-01T05:53:40.532Z,20160.00
2018-07-01T05:54:40.522Z,16320.00
2018-07-01T05:55:40.470Z,24480.00
2018-07-01T05:56:40.440Z,22496.00
2018-07-01T05:57:40.434Z,30976.00
2018-07-01T05:58:40.379Z,31968.00
2018-07-01T05:59:40.380Z,32352.00
2018-07-01T06:00:40.308Z,30976.00
2018-07-01T06:01:40.273Z,30048.00
2018-07-01T06:02:40.244Z,31456.00
2018-07-01T06:03:40.231Z,33088.00
2018-07-01T06:04:40.218Z,33376.00
2018-07-01T06:05:40.182Z,32832.00
2018-07-01T06:06:40.117Z,32960.00
2018-07-01T06:07:40.115Z,33312.00
2018-07-01T06:08:40.136Z,33344.00
2018-07-01T06:09:40.032Z,34144.00
2018-07-01T06:10:40.020Z,35360.00
2018-07-01T06:11:39.990Z,35872.00
2018-07-01T06:12:39.929Z,35008.00
2018-07-01T06:13:39.892Z,34272.00
2018-07-01T06:14:39.892Z,34144.00
2018-07-01T06:15:39.855Z,33312.00
2018-07-01T06:16:39.850Z,32032.00
2018-07-01T06:17:39.793Z,30592.00
2018-07-01T06:18:39.730Z,30080.00
2018-07-01T06:19:39.685Z,30368.00
2018-07-01T06:20:39.712Z,30176.00
2018-07-01T06:21:39.648Z,31360.00
2018-07-01T06:22:39.596Z,33408.00
2018-07-01T06:23:39.585Z,33888.00
2018-07-01T06:24:39.555Z,32672.00
2018-07-01T06:25:39.510Z,31072.00
2018-07-01T06:26:39.509Z,29760.00
2018-07-01T06:27:39.459Z,29024.00
2018-07-01T06:28:39.452Z,29344.00
2018-07-01T06:29:39.395Z,29600.00
2018-07-01T06:30:39.371Z,29376.00
2018-07-01T06:31:39.343Z,29760.00
2018-07-01T06:32:39.278Z,31776.00
2018-07-01T06:33:39.242Z,33664.00
2018-07-01T06:34:39.233Z,34272.00
2018-07-01T06:35:39.196Z,33568.00
2018-07-01T06:36:39.209Z,33184.00
2018-07-01T06:37:39.129Z,30016.00
2018-07-01T06:38:39.101Z,26720.00
2018-07-01T06:39:39.140Z,24800.00
2018-07-01T06:40:39.049Z,24992.00
2018-07-01T06:41:39.037Z,27264.00
2018-07-01T06:42:38.983Z,31584.00
2018-07-01T06:43:38.970Z,36160.00
2018-07-01T06:44:38.921Z,37632.00
2018-07-01T06:45:38.897Z,38112.00
2018-07-01T06:46:38.859Z,37888.00
2018-07-01T06:47:38.830Z,37568.00
2018-07-01T06:48:38.777Z,37728.00
2018-07-01T06:49:38.737Z,38752.00
2018-07-01T06:50:38.720Z,40928.00
2018-07-01T06:51:38.669Z,41376.00
2018-07-01T06:52:38.665Z,41664.00
2018-07-01T06:53:38.632Z,41600.00
2018-07-01T06:54:38.582Z,42080.00
2018-07-01T06:55:38.555Z,42144.00
2018-07-01T06:56:38.535Z,41440.00
2018-07-01T06:57:38.524Z,39936.00
2018-07-01T06:58:38.478Z,38304.00
2018-07-01T06:59:38.475Z,37376.00
2018-07-01T07:00:38.410Z,37024.00
2018-07-01T07:01:38.386Z,38112.00
2018-07-01T07:02:38.320Z,40160.00
2018-07-01T07:03:38.321Z,42432.00
2018-07-01T07:04:38.259Z,44064.00
2018-07-01T07:05:38.252Z,44800.00
2018-07-01T07:06:38.260Z,45440.00
2018-07-01T07:07:38.173Z,46112.00
2018-07-01T07:08:38.151Z,51072.00
2018-07-01T07:09:38.098Z,47488.00
2018-07-01T07:10:38.090Z,47520.00
2018-07-01T07:11:38.056Z,46944.00
2018-07-01T07:12:38.043Z,21056.00
2018-07-01T07:13:38.053Z,46688.00
2018-07-01T07:14:37.980Z,46624.00
2018-07-01T07:15:37.928Z,46816.00
2018-07-01T07:16:37.899Z,46752.00
2018-07-01T07:17:37.851Z,46848.00
2018-07-01T07:18:37.846Z,48544.00
2018-07-01T07:19:37.831Z,49376.00
2018-07-01T07:20:37.786Z,49728.00
2018-07-01T07:21:37.769Z,48928.00
2018-07-01T07:22:37.712Z,44960.00
2018-07-01T07:23:37.695Z,41216.00
2018-07-01T07:24:37.737Z,38368.00
2018-07-01T07:25:37.607Z,35744.00
2018-07-01T07:26:37.577Z,34240.00
2018-07-01T07:27:37.558Z,33440.00
2018-07-01T07:28:37.537Z,33312.00
2018-07-01T07:29:37.500Z,34176.00
2018-07-01T07:30:37.482Z,34720.00
2018-07-01T07:31:37.424Z,38176.00
2018-07-01T07:32:37.393Z,42080.00
2018-07-01T07:33:37.370Z,46080.00
2018-07-01T07:34:37.355Z,46528.00
2018-07-01T07:35:37.310Z,45824.00
2018-07-01T07:36:37.264Z,44832.00
2018-07-01T07:37:37.232Z,45024.00
2018-07-01T07:38:37.210Z,49248.00
2018-07-01T07:39:37.169Z,44608.00
2018-07-01T07:40:37.216Z,45600.00
2018-07-01T07:41:37.115Z,47008.00
2018-07-01T07:42:37.076Z,47104.00
2018-07-01T07:43:37.086Z,46880.00
2018-07-01T07:44:37.041Z,46816.00
2018-07-01T07:45:37.008Z,47584.00
2018-07-01T07:46:36.959Z,47552.00
2018-07-01T07:47:36.925Z,47584.00
2018-07-01T07:48:36.911Z,47168.00
2018-07-01T07:49:36.854Z,0.00
2018-07-01T07:50:36.871Z,25952.00
2018-07-01T07:51:36.823Z,48960.00
2018-07-01T07:52:36.779Z,48448.00
2018-07-01T07:53:36.738Z,48736.00
2018-07-01T07:54:36.732Z,48320.00
2018-07-01T07:55:36.681Z,48928.00
2018-07-01T07:56:36.675Z,49760.00
2018-07-01T07:57:36.621Z,51104.00
2018-07-01T07:58:36.597Z,51264.00
2018-07-01T07:59:36.566Z,51520.00
2018-07-01T08:00:36.520Z,51904.00
2018-07-01T08:01:36.518Z,53056.00
2018-07-01T08:02:36.464Z,14680.00
2018-07-01T08:03:36.435Z,53088.00
2018-07-01T08:04:36.413Z,52544.00
2018-07-01T08:05:36.372Z,51840.00
2018-07-01T08:06:36.396Z,50048.00
2018-07-01T08:07:36.314Z,48320.00
2018-07-01T08:08:36.279Z,46880.00
2018-07-01T08:09:36.247Z,46784.00
2018-07-01T08:10:36.224Z,50624.00
2018-07-01T08:11:36.205Z,52128.00
2018-07-01T08:12:36.191Z,52224.00
2018-07-01T08:13:36.119Z,52448.00
2018-07-01T08:14:36.122Z,52928.00
2018-07-01T08:15:36.082Z,52960.00
2018-07-01T08:16:36.032Z,51840.00
2018-07-01T08:17:36.075Z,51200.00
2018-07-01T08:18:35.985Z,51744.00
2018-07-01T08:19:35.958Z,51520.00
2018-07-01T08:20:35.900Z,52288.00
2018-07-01T08:21:35.899Z,53888.00
2018-07-01T08:22:35.881Z,54112.00
2018-07-01T08:23:35.817Z,53376.00
2018-07-01T08:24:35.809Z,52640.00
2018-07-01T08:25:35.753Z,50752.00
2018-07-01T08:26:35.742Z,50240.00
2018-07-01T08:27:35.682Z,52000.00
2018-07-01T08:28:35.688Z,50816.00
2018-07-01T08:29:45.992Z,53152.00
2018-07-01T08:30:35.610Z,54880.00
2018-07-01T08:31:35.563Z,53440.00
2018-07-01T08:32:36.281Z,53632.00
2018-07-01T08:33:35.544Z,54400.00
2018-07-01T08:34:35.514Z,54848.00
2018-07-01T08:35:35.463Z,35296.00
2018-07-01T08:36:35.424Z,47296.00
2018-07-01T08:37:35.437Z,59808.00
2018-07-01T08:38:35.377Z,60224.00
2018-07-01T08:39:35.333Z,60160.00
2018-07-01T08:40:35.308Z,58720.00
2018-07-01T08:41:35.260Z,59360.00
2018-07-01T08:42:35.239Z,36864.00
2018-07-01T08:43:35.248Z,62368.00
2018-07-01T08:44:35.202Z,54496.00
2018-07-01T08:45:35.176Z,54816.00
2018-07-01T08:46:35.114Z,54400.00
2018-07-01T08:47:35.089Z,56064.00
2018-07-01T08:48:35.070Z,52992.00
2018-07-01T08:49:35.060Z,0.00
2018-07-01T08:50:34.991Z,50336.00
2018-07-01T08:51:34.981Z,64608.00
2018-07-01T08:52:45.344Z,47296.00
2018-07-01T08:53:34.930Z,43872.00
2018-07-01T08:54:34.888Z,44960.00
2018-07-01T08:55:34.841Z,41888.00
2018-07-01T08:56:35.604Z,42112.00
2018-07-01T08:57:35.112Z,17920.00
2018-07-01T08:58:34.747Z,32864.00
2018-07-01T08:59:34.749Z,14940.00
2018-07-01T09:00:34.686Z,7456.00
2018-07-01T09:01:34.652Z,97984.00
2018-07-01T09:02:34.631Z,48448.00
2018-07-01T09:03:34.635Z,59680.00
2018-07-01T09:04:34.640Z,56064.00
2018-07-01T09:05:34.545Z,53184.00
2018-07-01T09:06:34.528Z,7712.00
2018-07-01T09:07:34.482Z,12416.00
2018-07-01T09:08:34.513Z,16832.00
2018-07-01T09:09:34.417Z,50464.00
2018-07-01T09:10:34.441Z,41088.00
2018-07-01T09:11:34.368Z,49920.00
2018-07-01T09:12:34.348Z,48544.00
2018-07-01T09:13:34.322Z,44800.00
2018-07-01T09:14:34.283Z,42784.00
2018-07-01T09:15:34.291Z,42112.00
2018-07-01T09:16:34.277Z,41760.00
2018-07-01T09:17:34.200Z,45984.00
2018-07-01T09:18:34.170Z,43936.00
2018-07-01T09:19:34.128Z,45952.00
2018-07-01T09:20:34.128Z,48480.00
2018-07-01T09:21:34.068Z,51392.00
2018-07-01T09:22:34.099Z,100672.00
2018-07-01T09:23:34.050Z,59360.00
2018-07-01T09:24:34.007Z,62240.00
2018-07-01T09:25:33.988Z,64352.00
2018-07-01T09:26:33.945Z,64928.00
2018-07-01T09:27:33.905Z,65920.00
2018-07-01T09:28:33.936Z,63360.00
2018-07-01T09:29:33.842Z,28384.00
2018-07-01T09:30:33.849Z,63168.00
2018-07-01T09:31:33.777Z,62240.00
2018-07-01T09:32:33.778Z,62144.00
2018-07-01T09:33:33.712Z,61568.00
2018-07-01T09:34:33.771Z,63168.00
2018-07-01T09:35:33.668Z,63904.00
2018-07-01T09:36:33.665Z,61632.00
2018-07-01T09:37:33.607Z,60864.00
2018-07-01T09:38:33.574Z,62528.00
2018-07-01T09:39:44.729Z,65344.00
2018-07-01T09:40:33.538Z,65728.00
2018-07-01T09:41:33.524Z,64640.00
2018-07-01T09:42:33.624Z,63616.00
2018-07-01T09:43:33.953Z,62720.00
2018-07-01T09:44:33.413Z,63648.00
2018-07-01T09:45:33.381Z,63968.00
2018-07-01T09:46:33.412Z,62752.00
2018-07-01T09:47:33.363Z,63616.00
2018-07-01T09:48:33.306Z,65216.00
2018-07-01T09:49:33.289Z,66432.00
2018-07-01T09:50:33.307Z,66400.00
2018-07-01T09:51:33.214Z,65120.00
2018-07-01T09:52:33.227Z,64320.00
2018-07-01T09:53:33.194Z,64512.00
2018-07-01T09:54:33.183Z,63840.00
2018-07-01T09:55:33.122Z,65024.00
2018-07-01T09:56:33.091Z,64960.00
2018-07-01T09:57:33.083Z,64960.00
2018-07-01T09:58:33.142Z,64000.00
2018-07-01T09:59:33.071Z,63040.00
2018-07-01T10:00:32.958Z,62688.00
2018-07-01T10:01:32.941Z,62208.00
2018-07-01T10:02:32.907Z,62272.00
2018-07-01T10:03:32.915Z,11148.00
2018-07-01T10:04:32.866Z,63264.00
2018-07-01T10:05:32.864Z,63264.00
2018-07-01T10:06:32.836Z,61440.00
2018-07-01T10:07:32.787Z,61888.00
2018-07-01T10:08:32.774Z,60096.00
2018-07-01T10:09:32.704Z,59200.00
2018-07-01T10:10:32.687Z,60096.00
2018-07-01T10:11:32.662Z,61632.00
2018-07-01T10:12:32.645Z,64032.00
2018-07-01T10:13:32.621Z,63392.00
2018-07-01T10:14:32.600Z,62272.00
2018-07-01T10:15:32.561Z,60928.00
2018-07-01T10:16:32.545Z,60832.00
2018-07-01T10:17:32.513Z,62048.00
2018-07-01T10:18:32.489Z,64768.00
2018-07-01T10:19:32.444Z,63968.00
2018-07-01T10:20:32.428Z,63872.00
2018-07-01T10:21:32.413Z,62880.00
2018-07-01T10:22:32.355Z,64256.00
2018-07-01T10:23:32.321Z,62432.00
2018-07-01T10:24:32.326Z,60032.00
2018-07-01T10:25:32.276Z,64160.00
2018-07-01T10:26:44.621Z,63776.00
2018-07-01T10:27:32.211Z,63744.00
2018-07-01T10:28:32.195Z,63424.00
2018-07-01T10:29:32.262Z,63584.00
2018-07-01T10:30:33.067Z,63456.00
2018-07-01T10:31:32.192Z,63200.00
2018-07-01T10:32:32.185Z,64064.00
2018-07-01T10:33:32.045Z,63744.00
2018-07-01T10:34:32.124Z,61824.00
2018-07-01T10:35:32.024Z,56192.00
2018-07-01T10:36:31.965Z,58144.00
2018-07-01T10:37:31.967Z,66624.00
2018-07-01T10:38:31.904Z,63360.00
2018-07-01T10:39:31.878Z,64288.00
2018-07-01T10:40:31.877Z,31296.00
2018-07-01T10:41:31.850Z,63296.00
2018-07-01T10:42:31.805Z,55744.00
2018-07-01T10:43:31.790Z,14912.00
2018-07-01T10:44:31.746Z,62240.00
2018-07-01T10:45:31.736Z,59488.00
2018-07-01T10:46:31.717Z,61952.00
2018-07-01T10:47:31.725Z,64096.00
2018-07-01T10:48:31.655Z,103040.00
2018-07-01T10:49:31.617Z,56864.00
2018-07-01T10:50:31.621Z,11952.00
2018-07-01T10:51:31.552Z,68544.00
2018-07-01T10:52:31.603Z,72192.00
2018-07-01T10:53:31.499Z,12052.00
2018-07-01T10:54:31.479Z,11416.00
2018-07-01T10:55:31.528Z,75168.00
2018-07-01T10:56:31.518Z,68096.00
2018-07-01T10:57:31.571Z,71968.00
2018-07-01T10:58:31.365Z,9332.00
2018-07-01T10:59:31.372Z,68512.00
2018-07-01T11:00:31.342Z,68512.00
2018-07-01T11:01:31.311Z,16032.00
2018-07-01T11:02:31.309Z,11840.00
2018-07-01T11:03:31.219Z,13728.00
2018-07-01T11:04:31.197Z,74848.00
2018-07-01T11:05:31.193Z,0.00
2018-07-01T11:06:31.188Z,47488.00
2018-07-01T11:07:31.133Z,47904.00
2018-07-01T11:08:31.110Z,41152.00
2018-07-01T11:09:31.118Z,41568.00
2018-07-01T11:10:31.075Z,43520.00
2018-07-01T11:11:31.057Z,48512.00
2018-07-01T11:12:31.014Z,35776.00
2018-07-01T11:13:30.952Z,62944.00
2018-07-01T11:14:30.959Z,67776.00
2018-07-01T11:15:30.900Z,83008.00
2018-07-01T11:16:30.882Z,71776.00
2018-07-01T11:17:30.868Z,0.00
2018-07-01T11:18:30.833Z,23872.00
2018-07-01T11:19:30.843Z,73728.00
2018-07-01T11:20:30.806Z,71808.00
2018-07-01T11:21:30.789Z,70688.00
2018-07-01T11:22:30.759Z,67328.00
2018-07-01T11:23:30.700Z,65152.00
2018-07-01T11:24:30.648Z,0.00
2018-07-01T11:25:30.624Z,25792.00
2018-07-01T11:26:30.616Z,65856.00
2018-07-01T11:27:30.754Z,64288.00
2018-07-01T11:28:30.595Z,68512.00
2018-07-01T11:29:30.519Z,70336.00
2018-07-01T11:30:30.521Z,72992.00
2018-07-01T11:31:30.469Z,9672.00
2018-07-01T11:32:30.512Z,74496.00
2018-07-01T11:33:30.410Z,0.00
2018-07-01T11:34:30.370Z,61632.00
2018-07-01T11:35:30.345Z,71488.00
2018-07-01T11:36:30.334Z,43552.00
2018-07-01T11:37:30.303Z,58944.00
2018-07-01T11:38:30.288Z,18976.00
2018-07-01T11:39:30.242Z,138208.00
2018-07-01T11:40:30.235Z,78304.00
2018-07-01T11:41:30.202Z,79872.00
2018-07-01T11:42:30.192Z,81440.00
2018-07-01T11:43:30.142Z,24864.00
2018-07-01T11:44:30.129Z,73408.00
2018-07-01T11:45:30.060Z,70624.00
2018-07-01T11:46:30.053Z,10840.00
2018-07-01T11:47:30.023Z,80000.00
2018-07-01T11:48:30.013Z,58048.00
2018-07-01T11:49:29.965Z,52608.00
2018-07-01T11:50:29.941Z,45920.00
2018-07-01T11:51:29.922Z,51744.00
2018-07-01T11:52:29.998Z,0.00
2018-07-01T11:53:29.837Z,43136.00
2018-07-01T11:54:29.837Z,41984.00
2018-07-01T11:55:29.795Z,53824.00
2018-07-01T11:56:29.751Z,58944.00
2018-07-01T11:57:29.757Z,50016.00
2018-07-01T11:58:29.723Z,70944.00
2018-07-01T11:59:29.711Z,9556.00
2018-07-01T12:00:29.670Z,9644.00
2018-07-01T12:01:29.619Z,16836.00
2018-07-01T12:02:29.608Z,36960.00
2018-07-01T12:03:29.574Z,9332.00
2018-07-01T12:04:29.558Z,13516.00
2018-07-01T12:05:29.556Z,30656.00
2018-07-01T12:06:29.469Z,76288.00
2018-07-01T12:07:29.475Z,76576.00
2018-07-01T12:08:29.438Z,9604.00
2018-07-01T12:09:29.389Z,10244.00
2018-07-01T12:10:29.427Z,14952.00